Terminal Aerodrome Forecast
Issued by NWS Pittsburgh, PA

Home | Current Version | Previous Version | Text Only | Print | Product List | Glossary On
Versions: 1 2 3 4 5 6 7 8 9 10 11 12 13 14 15 16 17 18 19 20 21 22 23 24 25 26 27 28 29
664
FTUS41 KPBZ 270242 AAA
TAFPIT
TAF AMD
KPIT 270242Z 2703/2806 27005KT P6SM SCT250
     FM270600 21005KT P6SM SKC
     FM271600 23010G18KT P6SM SKC
     FM280000 21005KT P6SM SKC=

USA.gov is the U.S. government's official web portal to all federal, state and local government web resources and services.